Time;durP1;ratioP1;P1;durP2;ratioP2;P2;SDS_P1;SDS_P2;PMS_P1;PMS_P2;Temp;Humidity;BMP_temperature;BMP_pressure;BME280_temperature;BME280_humidity;BME280_pressure;Samples;Min_cycle;Max_cycle;Signal;HPM_P1;HPM_P2
2023/07/13 00:01:46;;;;;;;7.65;4.97;;;;;;;16.75;65.79;101304.31;5076331;28;20035;-78
2023/07/13 00:04:12;;;;;;;8.93;5.18;;;;;;;16.76;65.51;101297.13;5075309;28;20025;-77
2023/07/13 00:06:37;;;;;;;12.43;6.15;;;;;;;16.73;65.99;101308.09;5093952;28;20111;-78
2023/07/13 00:09:06;;;;;;;10.18;6.50;;;;;;;16.74;66.25;101309.81;5093321;28;20118;-78
2023/07/13 00:11:32;;;;;;;13.77;9.50;;;;;;;16.78;65.96;101311.31;5100587;28;20024;-77
2023/07/13 00:13:57;;;;;;;13.63;9.70;;;;;;;16.80;66.56;101306.66;5055666;28;20024;-78
2023/07/13 00:16:23;;;;;;;12.10;7.72;;;;;;;16.69;66.86;101288.69;5106108;28;20073;-77
2023/07/13 00:18:52;;;;;;;14.50;6.68;;;;;;;16.57;66.60;101271.75;5093342;28;20467;-77
2023/07/13 00:21:17;;;;;;;;;;;;;;;16.95;65.10;101301.88;5110200;28;20119;-77
2023/07/13 00:23:43;;;;;;;7.05;5.05;;;;;;;16.61;67.08;101309.09;5093745;28;20002;-78
2023/07/13 00:26:10;;;;;;;5.78;4.72;;;;;;;16.43;68.00;101298.03;5097082;28;20028;-78
2023/07/13 00:28:35;;;;;;;10.98;5.10;;;;;;;16.46;67.79;101287.03;5092659;28;20049;-77
2023/07/13 00:31:01;;;;;;;8.80;5.47;;;;;;;16.39;68.10;101288.53;5075989;28;20028;-77
2023/07/13 00:33:28;;;;;;;12.60;7.20;;;;;;;16.53;68.44;101307.03;5092956;28;20051;-77
2023/07/13 00:35:55;;;;;;;15.18;8.93;;;;;;;16.43;68.57;101308.75;5076813;28;20025;-78
2023/07/13 00:38:21;;;;;;;17.88;9.55;;;;;;;16.37;68.79;101302.03;5082554;28;20016;-78
2023/07/13 00:40:47;;;;;;;17.27;11.00;;;;;;;16.34;68.91;101308.50;5075533;28;20024;-77
2023/07/13 00:43:16;;;;;;;19.17;11.35;;;;;;;16.39;68.92;101312.69;5091887;28;20415;-77
2023/07/13 00:45:44;;;;;;;20.08;9.90;;;;;;;16.19;69.65;101314.25;5104305;28;20030;-77
2023/07/13 00:48:20;;;;;;;16.97;9.07;;;;;;;16.18;69.64;101307.16;5074665;28;20024;-78
2023/07/13 00:50:49;;;;;;;28.90;17.10;;;;;;;16.27;69.71;101310.00;5090511;28;20487;-78
2023/07/13 00:53:15;;;;;;;31.02;19.90;;;;;;;16.27;69.76;101319.88;5092276;28;20028;-79
2023/07/13 00:55:43;;;;;;;31.13;22.02;;;;;;;16.22;70.24;101311.34;5108016;28;20497;-77
2023/07/13 00:58:11;;;;;;;21.30;13.40;;;;;;;16.08;70.55;101301.69;5092894;28;20050;-78
2023/07/13 01:00:38;;;;;;;13.85;9.05;;;;;;;16.17;70.47;101311.69;5075019;28;20551;-76
2023/07/13 01:03:04;;;;;;;13.02;6.47;;;;;;;16.13;70.62;101296.81;5093847;28;20372;-78
2023/07/13 01:05:32;;;;;;;8.80;5.50;;;;;;;16.11;70.91;101310.34;5074544;28;20028;-78
2023/07/13 01:07:59;;;;;;;7.65;5.00;;;;;;;16.15;70.73;101310.97;5074969;28;20418;-78
2023/07/13 01:10:25;;;;;;;7.55;5.43;;;;;;;16.06;71.63;101303.63;5108722;28;20073;-77
2023/07/13 01:12:54;;;;;;;7.40;5.05;;;;;;;16.00;71.58;101296.06;5091760;28;20030;-77
2023/07/13 01:15:35;;;;;;;11.45;5.10;;;;;;;15.95;71.94;101295.59;5092636;28;20064;-77
2023/07/13 01:18:02;;;;;;;11.98;4.78;;;;;;;16.02;71.79;101310.22;5092701;28;20380;-78
2023/07/13 01:20:30;;;;;;;11.20;5.05;;;;;;;16.04;71.88;101313.66;5074860;28;20024;-78
2023/07/13 01:22:59;;;;;;;10.48;5.88;;;;;;;15.95;72.28;101312.53;5074826;28;20497;-77
2023/07/13 01:25:27;;;;;;;9.98;5.65;;;;;;;15.84;72.92;101310.69;5090585;28;20387;-77
2023/07/13 01:27:52;;;;;;;9.00;4.72;;;;;;;15.88;73.02;101317.53;5069934;28;20038;-78
2023/07/13 01:30:18;;;;;;;9.95;5.53;;;;;;;15.98;72.64;101320.34;5072945;28;20028;-78
2023/07/13 01:32:43;;;;;;;9.65;5.13;;;;;;;15.89;72.74;101313.03;5073346;28;20064;-78
2023/07/13 01:35:09;;;;;;;18.60;5.93;;;;;;;15.97;73.44;101317.75;5091111;28;20149;-77
2023/07/13 01:37:37;;;;;;;9.65;5.20;;;;;;;15.91;73.11;101305.69;5073631;28;20119;-78
2023/07/13 01:40:04;;;;;;;12.25;5.25;;;;;;;15.76;73.35;101304.19;5071887;28;20028;-78
2023/07/13 01:42:30;;;;;;;8.40;5.22;;;;;;;15.81;73.71;101315.44;5070691;28;20496;-78
2023/07/13 01:44:55;;;;;;;10.15;4.90;;;;;;;15.77;73.83;101324.72;5069577;28;20065;-78
2023/07/13 01:47:22;;;;;;;8.65;5.10;;;;;;;15.83;73.84;101334.97;5104154;28;20033;-78
2023/07/13 01:49:48;;;;;;;9.88;5.65;;;;;;;15.79;73.92;101333.47;5070037;28;20472;-77
2023/07/13 01:52:15;;;;;;;10.27;5.55;;;;;;;15.77;73.94;101327.38;5070733;28;20024;-78
2023/07/13 01:54:41;;;;;;;12.98;5.70;;;;;;;15.75;74.28;101330.19;5069017;28;20020;-78
2023/07/13 01:57:06;;;;;;;9.95;5.53;;;;;;;15.67;74.57;101330.75;5070933;28;20039;-78
2023/07/13 01:59:33;;;;;;;10.80;5.22;;;;;;;15.65;74.82;101332.69;5069709;28;20104;-78
2023/07/13 02:02:01;;;;;;;10.52;4.90;;;;;;;15.46;74.69;101300.19;5070168;28;20476;-78
2023/07/13 02:04:26;;;;;;;12.57;5.57;;;;;;;15.59;74.80;101324.25;5071873;28;20107;-78
2023/07/13 02:06:51;;;;;;;12.38;6.00;;;;;;;15.58;74.96;101317.16;5072568;28;20107;-78
2023/07/13 02:09:19;;;;;;;11.48;6.68;;;;;;;15.58;75.04;101327.91;5071413;28;20067;-77
2023/07/13 02:11:48;;;;;;;16.95;8.02;;;;;;;15.42;76.03;101339.78;5073024;28;20024;-78
2023/07/13 02:14:15;;;;;;;17.23;8.18;;;;;;;15.38;76.36;101332.97;5068813;28;20032;-77
2023/07/13 02:16:43;;;;;;;24.15;12.43;;;;;;;15.43;76.38;101340.66;5072912;28;20376;-77
2023/07/13 02:19:09;;;;;;;23.08;10.95;;;;;;;15.48;76.03;101318.88;5072260;28;20510;-78
2023/07/13 02:21:34;;;;;;;12.60;7.68;;;;;;;15.50;76.28;101339.22;5065207;28;20025;-78
2023/07/13 02:24:01;;;;;;;10.48;7.20;;;;;;;15.43;76.50;101332.59;5071318;28;20028;-77
2023/07/13 02:26:27;;;;;;;8.93;5.85;;;;;;;15.29;77.15;101336.31;5074038;28;20029;-78
2023/07/13 02:28:52;;;;;;;11.65;5.38;;;;;;;15.32;77.32;101330.72;5070414;28;20029;-78
2023/07/13 02:31:20;;;;;;;9.05;6.22;;;;;;;15.30;77.22;101329.16;5072293;28;20031;-78
2023/07/13 02:33:47;;;;;;;9.90;5.65;;;;;;;15.26;77.48;101324.97;5071868;28;20103;-78
2023/07/13 02:36:16;;;;;;;9.65;6.07;;;;;;;15.27;77.64;101337.44;5104551;28;20025;-78
2023/07/13 02:38:42;;;;;;;10.05;5.65;;;;;;;15.13;78.10;101312.50;5071251;28;20103;-77
2023/07/13 02:41:08;;;;;;;10.85;5.78;;;;;;;15.38;78.10;101329.41;5074400;28;20556;-78
2023/07/13 02:43:35;;;;;;;9.98;4.95;;;;;;;15.29;77.73;101328.28;5112047;28;20109;-78
2023/07/13 02:46:06;;;;;;;11.25;5.95;;;;;;;15.20;78.35;101334.31;5077541;28;20406;-78
2023/07/13 02:48:36;;;;;;;9.75;5.60;;;;;;;15.07;78.10;101309.44;5095705;28;20032;-77
2023/07/13 02:51:01;;;;;;;;;;;;;;;15.47;76.43;101341.25;5111913;28;20039;-77
2023/07/13 02:53:27;;;;;;;10.75;5.88;;;;;;;15.21;78.43;101326.19;5094952;28;19908;-78
2023/07/13 02:55:52;;;;;;;11.80;5.65;;;;;;;15.15;78.88;101329.34;5093988;28;20029;-78
2023/07/13 02:58:18;;;;;;;8.07;5.60;;;;;;;15.07;79.06;101314.78;5094253;28;20032;-78
2023/07/13 03:00:46;;;;;;;8.93;5.32;;;;;;;15.29;78.33;101332.78;5095142;28;20066;-77
2023/07/13 03:03:13;;;;;;;9.75;5.78;;;;;;;15.19;78.72;101325.44;5094782;28;20490;-78
2023/07/13 03:05:42;;;;;;;9.93;5.78;;;;;;;15.22;79.12;101333.25;5075828;28;20475;-78
2023/07/13 03:08:08;;;;;;;10.57;5.25;;;;;;;15.15;79.32;101337.38;5075276;28;20035;-78
2023/07/13 03:10:34;;;;;;;9.23;5.93;;;;;;;15.14;79.39;101342.81;5104929;28;20445;-78
2023/07/13 03:12:59;;;;;;;10.77;5.72;;;;;;;15.11;79.45;101327.81;5076926;28;20024;-78
2023/07/13 03:15:25;;;;;;;11.68;5.95;;;;;;;14.93;79.92;101318.50;5093932;28;20466;-78
2023/07/13 03:17:50;;;;;;;9.40;6.25;;;;;;;15.02;80.47;101339.22;5076038;28;20494;-78
2023/07/13 03:20:16;;;;;;;14.68;7.32;;;;;;;14.86;80.77;101331.47;5076130;28;20034;-78
2023/07/13 03:22:42;;;;;;;9.15;5.90;;;;;;;15.08;80.80;101340.59;5092582;28;20103;-78
2023/07/13 03:25:10;;;;;;;9.75;5.65;;;;;;;15.15;80.51;101342.72;5064957;28;20038;-78
2023/07/13 03:27:36;;;;;;;10.95;5.80;;;;;;;14.93;80.77;101322.00;5075327;28;20107;-78
2023/07/13 03:30:02;;;;;;;12.55;6.13;;;;;;;15.05;81.19;101341.69;5091535;28;20115;-78
2023/07/13 03:32:28;;;;;;;10.73;5.78;;;;;;;15.03;81.37;101348.13;5076769;28;20023;-78
2023/07/13 03:34:53;;;;;;;10.55;6.22;;;;;;;14.76;81.88;101325.97;5093959;28;20127;-77
2023/07/13 03:37:21;;;;;;;12.77;6.68;;;;;;;14.81;82.44;101348.84;5094279;28;20039;-77
2023/07/13 03:39:46;;;;;;;15.27;6.85;;;;;;;15.04;82.02;101355.22;5076288;28;20051;-78
2023/07/13 03:42:12;;;;;;;15.38;6.40;;;;;;;14.88;82.60;101353.66;5076463;28;20082;-78
2023/07/13 03:44:39;;;;;;;13.77;6.45;;;;;;;14.86;82.73;101346.69;5094388;28;20024;-77
2023/07/13 03:47:08;;;;;;;17.25;7.10;;;;;;;14.82;83.58;101356.75;5076459;28;20052;-78
2023/07/13 03:49:37;;;;;;;18.40;6.82;;;;;;;14.86;83.07;101352.06;5093243;28;20099;-77
2023/07/13 03:52:03;;;;;;;14.95;6.82;;;;;;;14.80;83.55;101355.19;5073312;28;20024;-78
2023/07/13 03:54:30;;;;;;;15.27;6.65;;;;;;;14.80;83.50;101355.19;5062396;28;20037;-77
2023/07/13 03:56:56;;;;;;;12.30;6.30;;;;;;;14.88;83.58;101367.06;5075271;28;20087;-78
2023/07/13 03:59:21;;;;;;;9.15;6.60;;;;;;;14.76;83.61;101350.06;5072687;28;20029;-77
2023/07/13 04:01:47;;;;;;;16.60;6.25;;;;;;;14.75;84.35;101371.56;5098477;28;20020;-78
2023/07/13 04:04:12;;;;;;;9.93;7.07;;;;;;;14.77;84.45;101364.28;5092981;28;20032;-77
2023/07/13 04:06:38;;;;;;;16.80;7.25;;;;;;;14.79;84.66;101369.53;5093815;28;20016;-78
2023/07/13 04:09:09;;;;;;;13.13;7.20;;;;;;;14.70;85.35;101371.03;5080701;28;20422;-78
2023/07/13 04:11:37;;;;;;;13.13;6.70;;;;;;;14.74;85.08;101376.09;5096206;28;20027;-78
2023/07/13 04:14:03;;;;;;;15.65;7.13;;;;;;;14.74;85.24;101372.56;5104686;28;20475;-78
2023/07/13 04:16:32;;;;;;;12.63;6.72;;;;;;;14.93;84.72;101388.13;5093636;28;20055;-78
2023/07/13 04:18:59;;;;;;;17.33;7.82;;;;;;;14.88;85.63;101383.13;5109365;28;20051;-77
2023/07/13 04:21:32;;;;;;;15.20;8.35;;;;;;;14.87;85.80;101397.47;5109299;28;20531;-78
2023/07/13 04:23:58;;;;;;;15.02;7.78;;;;;;;14.94;85.20;101371.06;5093603;28;20029;-78
2023/07/13 04:26:24;;;;;;;16.95;7.90;;;;;;;14.88;86.18;101391.16;5100986;28;20020;-78
2023/07/13 04:28:55;;;;;;;16.42;9.10;;;;;;;15.01;86.45;101395.63;5107719;28;20082;-77
2023/07/13 04:31:22;;;;;;;19.35;9.18;;;;;;;15.12;86.16;101395.69;5090216;28;20510;-77
2023/07/13 04:33:49;;;;;;;18.73;10.27;;;;;;;15.13;86.38;101390.22;5092026;28;20434;-77
2023/07/13 04:36:16;;;;;;;26.25;13.23;;;;;;;15.30;86.22;101382.75;5093411;28;20028;-77
2023/07/13 04:38:41;;;;;;;26.58;12.35;;;;;;;15.31;86.85;101389.81;5092603;28;20106;-78
2023/07/13 04:41:08;;;;;;;28.85;13.70;;;;;;;15.17;87.12;101372.91;5092695;28;20020;-79
2023/07/13 04:43:35;;;;;;;25.52;14.45;;;;;;;15.34;87.28;101401.16;5092947;28;20036;-78
2023/07/13 04:46:08;;;;;;;33.15;14.52;;;;;;;15.41;87.18;101399.75;5108224;28;20024;-78
2023/07/13 04:48:34;;;;;;;28.25;13.95;;;;;;;15.55;87.03;101400.53;5074940;28;20032;-78
2023/07/13 04:51:00;;;;;;;35.53;17.75;;;;;;;15.55;87.52;101414.78;5080117;28;20471;-78
2023/07/13 04:53:26;;;;;;;38.80;18.40;;;;;;;15.58;87.54;101413.69;5091350;28;20552;-78
2023/07/13 04:55:52;;;;;;;31.70;17.25;;;;;;;15.54;88.10;101409.56;5092787;28;20036;-78
2023/07/13 04:58:21;;;;;;;32.72;17.80;;;;;;;15.54;88.38;101402.34;5108237;28;20390;-78
2023/07/13 05:00:47;;;;;;;38.30;18.42;;;;;;;15.69;87.99;101410.25;5091926;28;20024;-78
2023/07/13 05:03:12;;;;;;;31.88;14.80;;;;;;;15.73;87.78;101415.25;5089719;28;20030;-78
2023/07/13 05:05:38;;;;;;;32.67;15.52;;;;;;;15.72;88.32;101413.56;5104226;28;20020;-78
2023/07/13 05:08:07;;;;;;;30.38;14.68;;;;;;;15.75;87.96;101416.00;5090076;28;20086;-78
2023/07/13 05:10:32;;;;;;;28.17;14.75;;;;;;;15.71;88.33;101409.16;5073388;28;20027;-78
2023/07/13 05:12:58;;;;;;;32.55;14.18;;;;;;;15.78;87.94;101420.28;5090397;28;20028;-78
2023/07/13 05:15:25;;;;;;;38.05;16.60;;;;;;;15.81;88.50;101418.22;5092689;28;20024;-77
2023/07/13 05:17:55;;;;;;;31.23;15.85;;;;;;;15.65;88.38;101402.41;5095778;28;20033;-78
2023/07/13 05:20:20;;;;;;;32.15;15.45;;;;;;;15.96;88.14;101426.06;5091020;28;20035;-78
2023/07/13 05:22:50;;;;;;;27.48;15.40;;;;;;;15.93;88.38;101437.88;5074558;28;20028;-78
2023/07/13 05:25:15;;;;;;;;;;;;;;;16.09;87.16;101440.28;5074217;28;20556;-78
2023/07/13 05:27:41;;;;;;;33.42;14.77;;;;;;;15.93;87.89;101427.16;5072952;28;19966;-78
2023/07/13 05:30:10;;;;;;;30.75;15.38;;;;;;;15.97;87.95;101425.97;5073286;28;20027;-78
2023/07/13 05:32:35;;;;;;;;;;;;;;;16.16;87.01;101441.50;5092996;28;20459;-78
2023/07/13 05:35:01;;;;;;;29.33;16.20;;;;;;;16.09;88.10;101441.13;5105428;28;19919;-78
2023/07/13 05:37:28;;;;;;;28.75;15.10;;;;;;;16.09;88.13;101446.50;5092639;28;20126;-77
2023/07/13 05:39:56;;;;;;;33.72;16.10;;;;;;;16.12;88.18;101443.56;5091541;28;20035;-78
2023/07/13 05:42:21;;;;;;;28.92;15.35;;;;;;;16.06;87.92;101441.34;5090488;28;20066;-78
2023/07/13 05:44:47;;;;;;;29.00;15.85;;;;;;;16.09;88.42;101440.28;5107555;28;20475;-78
2023/07/13 05:47:14;;;;;;;35.53;16.83;;;;;;;16.11;88.19;101438.31;5072459;28;20031;-78
2023/07/13 05:49:40;;;;;;;34.90;16.52;;;;;;;16.16;87.88;101428.06;5072371;28;20111;-78
2023/07/13 05:52:05;;;;;;;32.00;16.25;;;;;;;16.16;87.90;101430.75;5073085;28;20398;-78
2023/07/13 05:54:33;;;;;;;30.90;16.20;;;;;;;16.16;87.75;101435.28;5073292;28;20093;-77
2023/07/13 05:56:59;;;;;;;33.17;16.70;;;;;;;16.31;88.12;101445.66;5074174;28;20085;-78
2023/07/13 05:59:25;;;;;;;28.60;15.27;;;;;;;16.32;87.55;101442.03;5092005;28;20040;-77
2023/07/13 06:01:52;;;;;;;24.42;15.10;;;;;;;16.32;87.96;101451.88;5073857;28;20038;-78
2023/07/13 06:04:18;;;;;;;30.42;15.90;;;;;;;16.31;87.39;101442.13;5088488;28;20047;-77
2023/07/13 06:06:44;;;;;;;32.08;16.80;;;;;;;16.39;87.09;101453.13;5090653;28;20020;-78
2023/07/13 06:09:09;;;;;;;32.70;14.82;;;;;;;16.46;87.48;101465.09;5071489;28;20035;-78
2023/07/13 06:11:37;;;;;;;33.53;15.30;;;;;;;16.46;86.80;101466.94;5074201;28;20032;-78
2023/07/13 06:14:03;;;;;;;27.08;15.30;;;;;;;16.49;86.99;101464.00;5089218;28;20078;-77
2023/07/13 06:16:29;;;;;;;27.17;15.15;;;;;;;16.49;86.73;101459.47;5072849;28;20516;-77
2023/07/13 06:18:54;;;;;;;30.02;16.77;;;;;;;16.59;87.48;101470.38;5093397;28;20051;-78
2023/07/13 06:21:22;;;;;;;32.83;16.60;;;;;;;16.63;86.77;101476.38;5095268;28;20046;-77
2023/07/13 06:23:49;;;;;;;29.80;15.13;;;;;;;16.62;86.30;101478.19;5098217;28;20035;-78
2023/07/13 06:26:16;;;;;;;36.45;16.02;;;;;;;16.55;85.97;101463.53;5097770;28;20529;-78
2023/07/13 06:28:41;;;;;;;30.42;15.65;;;;;;;16.61;86.20;101486.34;5089212;28;20510;-78
2023/07/13 06:31:11;;;;;;;31.70;15.10;;;;;;;16.64;86.08;101491.50;5093475;28;20066;-78
2023/07/13 06:33:37;;;;;;;31.42;16.38;;;;;;;16.54;86.00;101473.41;5102249;28;20051;-78
2023/07/13 06:36:07;;;;;;;31.90;16.00;;;;;;;16.56;86.67;101479.53;5096400;28;20065;-78
2023/07/13 06:38:33;;;;;;;37.13;15.95;;;;;;;16.62;86.32;101482.69;5093686;28;20020;-78
2023/07/13 06:41:01;;;;;;;30.17;15.82;;;;;;;16.65;86.32;101486.00;5077729;28;20046;-78
2023/07/13 06:43:28;;;;;;;33.17;16.48;;;;;;;16.66;86.05;101482.34;5095478;28;20090;-78
2023/07/13 06:45:55;;;;;;;31.90;15.85;;;;;;;16.71;85.91;101495.41;5095757;28;20110;-78
2023/07/13 06:48:21;;;;;;;25.52;15.68;;;;;;;16.71;85.88;101495.41;5095535;28;20098;-78
2023/07/13 06:50:48;;;;;;;30.90;15.30;;;;;;;16.75;85.44;101496.88;5095502;28;20522;-78
2023/07/13 06:53:14;;;;;;;27.50;14.45;;;;;;;16.83;85.62;101491.78;5076937;28;20043;-78
2023/07/13 06:55:40;;;;;;;31.70;14.80;;;;;;;16.82;84.79;101497.28;5095467;28;20040;-78
2023/07/13 06:58:07;;;;;;;35.28;15.88;;;;;;;16.81;85.08;101493.75;5074040;28;20436;-79
2023/07/13 07:00:33;;;;;;;28.75;15.35;;;;;;;16.87;84.91;101500.47;5099082;28;20064;-78
2023/07/13 07:02:58;;;;;;;25.35;14.95;;;;;;;16.93;85.18;101495.44;5056945;28;20078;-78
2023/07/13 07:05:24;;;;;;;26.33;14.00;;;;;;;17.00;85.74;101501.19;5097188;28;20429;-78
2023/07/13 07:07:54;;;;;;;31.45;13.52;;;;;;;17.11;86.21;101509.25;5088772;28;20024;-78
2023/07/13 07:10:20;;;;;;;32.78;13.75;;;;;;;17.20;84.49;101508.50;5096229;28;20423;-78
2023/07/13 07:12:46;;;;;;;28.25;12.98;;;;;;;17.10;83.66;101496.78;5076663;28;20383;-79
2023/07/13 07:15:11;;;;;;;25.08;13.77;;;;;;;17.21;83.11;101507.53;5095261;28;20020;-78
2023/07/13 07:17:38;;;;;;;26.42;13.60;;;;;;;17.17;83.31;101508.75;5095504;28;20027;-79
2023/07/13 07:20:05;;;;;;;22.27;13.93;;;;;;;17.28;83.40;101507.06;5076302;28;20071;-79
2023/07/13 07:22:31;;;;;;;24.27;13.60;;;;;;;17.24;82.59;101504.59;5095035;28;20028;-79
2023/07/13 07:24:59;;;;;;;26.80;12.77;;;;;;;17.25;83.26;101494.69;5110854;28;20016;-78
2023/07/13 07:27:27;;;;;;;34.97;14.75;;;;;;;17.39;82.32;101517.78;5129491;27;20085;-79
2023/07/13 07:29:53;;;;;;;24.63;13.10;;;;;;;17.43;82.02;101513.88;5086951;28;20028;-79
2023/07/13 07:32:19;;;;;;;23.50;12.02;;;;;;;17.55;82.18;101512.00;5098502;28;20394;-79
2023/07/13 07:34:45;;;;;;;26.83;12.65;;;;;;;17.62;81.13;101514.09;5094024;28;20541;-79
2023/07/13 07:37:13;;;;;;;24.40;11.90;;;;;;;17.83;80.32;101524.94;5114252;27;20106;-78
2023/07/13 07:39:38;;;;;;;22.95;11.07;;;;;;;17.91;79.82;101514.38;5107004;28;20135;-79
2023/07/13 07:42:07;;;;;;;22.05;11.93;;;;;;;17.91;79.39;101509.00;5097641;28;20538;-79
2023/07/13 07:44:32;;;;;;;22.10;10.00;;;;;;;18.00;78.10;101512.78;5094589;28;20028;-79
2023/07/13 07:47:06;;;;;;;23.15;10.95;;;;;;;18.16;78.18;101525.78;5076833;28;20265;-79
2023/07/13 07:49:31;;;;;;;22.92;9.60;;;;;;;18.25;77.67;101516.06;5092493;28;20408;-80
2023/07/13 07:52:01;;;;;;;21.95;10.48;;;;;;;18.36;76.64;101516.88;5076749;28;20026;-80
2023/07/13 07:54:27;;;;;;;22.30;9.88;;;;;;;18.48;76.52;101514.13;5075428;28;20031;-80
2023/07/13 07:56:52;;;;;;;20.10;9.23;;;;;;;18.80;76.65;101522.13;5093267;28;20016;-80
2023/07/13 07:59:19;;;;;;;20.83;8.93;;;;;;;18.68;75.19;101523.16;5094314;28;20028;-80
2023/07/13 08:01:46;;;;;;;16.60;8.70;;;;;;;18.61;74.54;101514.75;5092754;28;20030;-80
2023/07/13 08:04:11;;;;;;;22.52;9.52;;;;;;;18.73;73.68;101527.19;5075453;28;20028;-79
2023/07/13 08:06:39;;;;;;;19.60;8.38;;;;;;;18.65;73.85;101528.81;5091876;28;20477;-80
2023/07/13 08:09:08;;;;;;;15.35;7.43;;;;;;;18.59;74.33;101517.59;5086340;28;20024;-80
2023/07/13 08:11:35;;;;;;;17.25;7.68;;;;;;;18.80;74.41;101517.59;5107145;28;20027;-80
2023/07/13 08:14:01;;;;;;;20.33;8.07;;;;;;;18.92;73.36;101520.22;5103412;28;20016;-80
2023/07/13 08:16:26;;;;;;;18.63;7.78;;;;;;;19.02;74.20;101532.72;5091277;28;20035;-79
2023/07/13 08:18:52;;;;;;;19.13;7.40;;;;;;;19.05;73.65;101513.59;5094364;28;20446;-79
2023/07/13 08:21:19;;;;;;;13.90;5.97;;;;;;;19.45;71.85;101525.38;5117187;27;20031;-79
2023/07/13 08:23:46;;;;;;;17.33;7.40;;;;;;;19.76;70.84;101533.41;5071873;28;20031;-80
2023/07/13 08:26:11;;;;;;;14.10;7.00;;;;;;;19.82;70.79;101532.84;5093046;28;20020;-80
2023/07/13 08:28:39;;;;;;;15.93;6.80;;;;;;;19.66;68.98;101522.63;5095011;28;20526;-81
2023/07/13 08:31:07;;;;;;;16.43;6.07;;;;;;;19.68;69.23;101534.97;5068547;28;20046;-80
2023/07/13 08:33:36;;;;;;;13.48;7.30;;;;;;;19.80;68.30;101526.75;5091625;28;20076;-80
2023/07/13 08:36:04;;;;;;;;;;;;;;;20.07;67.53;101539.56;5093394;28;20067;-80
2023/07/13 08:38:30;;;;;;;12.25;5.95;;;;;;;19.99;66.63;101526.75;5083775;28;19944;-80
2023/07/13 08:40:59;;;;;;;13.05;6.72;;;;;;;20.03;66.53;101527.31;5094653;28;20048;-80
2023/07/13 08:43:37;;;;;;;16.27;7.03;;;;;;;20.09;65.94;101524.06;5074888;28;20135;-79
2023/07/13 08:46:12;;;;;;;13.75;6.65;;;;;;;19.91;66.92;101526.59;5079132;28;20023;-79
2023/07/13 08:48:52;;;;;;;16.25;6.78;;;;;;;20.13;66.04;101510.13;5090876;28;20024;-83
2023/07/13 08:51:39;;;;;;;16.05;6.88;;;;;;;20.18;66.22;101532.19;5090809;28;20395;-86
2023/07/13 08:54:16;;;;;;;18.85;6.50;;;;;;;20.09;66.04;101518.66;5093990;28;20029;-80
2023/07/13 08:56:47;;;;;;;16.30;6.03;;;;;;;20.03;65.99;101508.41;5078922;28;20020;-80
2023/07/13 08:59:20;;;;;;;14.13;6.93;;;;;;;20.15;65.28;101532.47;5070349;28;20524;-80
2023/07/13 09:02:31;;;;;;;15.57;6.18;;;;;;;20.51;65.53;101526.47;5078617;28;20024;-80
2023/07/13 09:05:02;;;;;;;18.05;6.18;;;;;;;20.35;64.38;101527.91;5051291;28;20070;-80
2023/07/13 09:07:34;;;;;;;13.98;6.13;;;;;;;20.52;63.51;101538.97;5055248;28;20456;-80
2023/07/13 09:10:11;;;;;;;12.40;5.97;;;;;;;20.70;62.19;101523.72;5072493;28;20030;-81
2023/07/13 09:12:56;;;;;;;12.05;5.82;;;;;;;20.96;62.38;101525.78;5069420;28;20028;-80
2023/07/13 09:15:33;;;;;;;12.88;5.55;;;;;;;20.93;61.26;101537.75;5104448;28;20028;-80
2023/07/13 09:18:39;;;;;;;11.50;5.55;;;;;;;20.97;61.55;101535.59;5089428;28;20021;-81
2023/07/13 09:21:10;;;;;;;11.52;5.72;;;;;;;20.78;60.45;101518.44;5082451;28;20028;-81
2023/07/13 09:23:41;;;;;;;11.80;5.32;;;;;;;21.01;60.06;101537.03;5091159;28;20131;-81
2023/07/13 09:26:24;;;;;;;14.98;6.00;;;;;;;21.02;60.08;101514.38;5105553;28;20478;-80
2023/07/13 09:29:04;;;;;;;11.57;5.55;;;;;;;20.87;59.53;101535.63;5074708;28;20467;-80
2023/07/13 09:31:39;;;;;;;10.45;5.97;;;;;;;20.85;59.41;101518.69;5077651;28;20438;-80
2023/07/13 09:34:10;;;;;;;13.48;5.35;;;;;;;20.86;60.86;101507.75;5089049;28;20450;-80
2023/07/13 09:36:36;;;;;;;13.18;6.28;;;;;;;20.96;59.80;101512.28;5072131;28;20564;-80
2023/07/13 09:39:02;;;;;;;14.50;5.60;;;;;;;20.98;59.93;101529.22;5102941;28;20047;-80
2023/07/13 09:41:50;;;;;;;12.40;5.30;;;;;;;20.94;59.66;101531.38;5101624;28;20032;-80
2023/07/13 09:44:28;;;;;;;14.02;4.97;;;;;;;21.06;58.78;101527.47;5075102;28;20073;-79
2023/07/13 09:46:57;;;;;;;12.65;5.03;;;;;;;21.30;57.83;101528.78;5071062;28;20657;-80
2023/07/13 09:49:29;;;;;;;8.02;4.40;;;;;;;21.30;57.17;101520.66;5100681;28;20028;-80
2023/07/13 09:52:01;;;;;;;9.25;4.47;;;;;;;21.41;58.23;101523.19;5084907;28;20482;-80
2023/07/13 09:54:31;;;;;;;11.43;4.90;;;;;;;21.48;55.72;101534.28;5073400;28;20032;-79
2023/07/13 09:56:59;;;;;;;14.82;4.97;;;;;;;21.77;55.58;101534.94;5074584;28;20509;-80
2023/07/13 09:59:29;;;;;;;11.85;4.68;;;;;;;21.90;55.40;101533.72;5073012;28;20036;-80
2023/07/13 10:01:54;;;;;;;11.13;5.22;;;;;;;21.67;54.81;101531.44;5092062;28;20066;-80
2023/07/13 10:04:27;;;;;;;10.02;4.65;;;;;;;21.80;55.63;101531.09;5091090;28;20047;-80
2023/07/13 10:07:06;;;;;;;12.63;4.70;;;;;;;21.90;56.21;101544.56;5074417;28;20023;-79
2023/07/13 10:09:32;;;;;;;10.60;4.45;;;;;;;21.78;56.49;101533.94;5073742;28;20494;-80
2023/07/13 10:12:03;;;;;;;10.00;4.50;;;;;;;21.85;55.98;101536.88;5075058;28;20024;-80
2023/07/13 10:14:31;;;;;;;13.05;4.10;;;;;;;22.12;55.45;101525.13;5068847;28;20028;-80
2023/07/13 10:17:02;;;;;;;15.43;4.47;;;;;;;22.28;53.32;101527.16;5108385;28;20170;-79
2023/07/13 10:19:32;;;;;;;9.90;3.85;;;;;;;22.61;53.32;101535.53;5074687;28;20020;-80
2023/07/13 10:22:22;;;;;;;8.02;3.55;;;;;;;22.84;52.30;101538.56;5088971;28;20044;-79
2023/07/13 10:24:50;;;;;;;11.88;4.15;;;;;;;23.12;52.24;101529.28;5095421;28;20452;-79
2023/07/13 10:27:17;;;;;;;12.65;5.15;;;;;;;23.25;50.94;101536.97;5085709;28;20044;-81
2023/07/13 10:29:55;;;;;;;7.88;3.78;;;;;;;23.18;52.01;101545.91;5092245;28;20111;-81
2023/07/13 10:32:23;;;;;;;11.35;4.13;;;;;;;22.95;51.66;101540.22;5092575;28;20111;-80
2023/07/13 10:34:51;;;;;;;9.23;3.78;;;;;;;22.70;52.31;101540.00;5091093;28;20032;-80
2023/07/13 10:37:24;;;;;;;8.75;4.05;;;;;;;22.44;52.81;101546.28;5092263;28;20116;-80
2023/07/13 10:39:55;;;;;;;13.40;3.75;;;;;;;22.08;52.95;101531.00;5073990;28;20509;-80
2023/07/13 10:42:41;;;;;;;14.57;4.40;;;;;;;21.94;58.31;101556.75;5091855;28;20040;-80
2023/07/13 10:45:20;;;;;;;11.70;4.22;;;;;;;21.51;60.15;101559.19;5070805;28;20039;-81
2023/07/13 10:47:46;;;;;;;11.57;4.95;;;;;;;21.17;65.91;101572.41;5092318;28;20020;-80
2023/07/13 10:50:24;;;;;;;13.05;6.18;;;;;;;20.83;67.61;101559.44;5073725;28;20032;-80
2023/07/13 10:53:20;;;;;;;8.23;6.00;;;;;;;20.70;67.12;101574.25;5073392;28;20024;-80
2023/07/13 10:55:50;;;;;;;8.43;5.93;;;;;;;20.53;72.44;101573.13;5074497;28;20049;-80
2023/07/13 10:58:28;;;;;;;10.88;6.78;;;;;;;20.65;69.72;101561.19;5060644;28;20518;-80
2023/07/13 11:01:03;;;;;;;10.43;6.63;;;;;;;20.82;71.91;101565.84;5073224;28;20122;-79
2023/07/13 11:03:34;;;;;;;11.10;6.68;;;;;;;20.99;72.26;101563.38;5095163;28;20027;-80
2023/07/13 11:06:16;;;;;;;9.60;6.55;;;;;;;21.40;70.66;101563.94;5095843;28;20387;-80
2023/07/13 11:08:44;;;;;;;9.85;5.80;;;;;;;21.87;68.51;101564.66;5094527;28;20055;-80
2023/07/13 11:11:29;;;;;;;10.40;5.55;;;;;;;22.38;66.72;101559.56;5093048;28;20118;-80
2023/07/13 11:13:57;;;;;;;13.50;5.68;;;;;;;22.86;61.10;101558.25;5090795;28;20035;-80
2023/07/13 11:16:23;;;;;;;10.13;5.30;;;;;;;23.09;59.96;101550.47;5075950;28;20481;-80
2023/07/13 11:19:03;;;;;;;12.80;5.75;;;;;;;23.45;59.33;101556.56;5092291;28;20035;-80
2023/07/13 11:21:30;;;;;;;10.77;5.68;;;;;;;23.57;57.16;101555.25;5091121;28;20085;-80
2023/07/13 11:24:03;;;;;;;8.18;5.25;;;;;;;23.38;57.30;101555.50;5091722;28;20027;-80